sensor_id;sensor_type;location;lat;lon;timestamp;temperature;humidity
24207;DHT22;12351;52.284;9.160;2022-11-15T00:01:30;9.20;99.90
24207;DHT22;12351;52.284;9.160;2022-11-15T00:04:20;9.20;99.90
24207;DHT22;12351;52.284;9.160;2022-11-15T00:07:10;9.20;99.90
24207;DHT22;12351;52.284;9.160;2022-11-15T00:10:01;9.20;99.90
24207;DHT22;12351;52.284;9.160;2022-11-15T00:12:53;9.20;99.90
24207;DHT22;12351;52.284;9.160;2022-11-15T00:15:44;9.30;99.90
24207;DHT22;12351;52.284;9.160;2022-11-15T00:18:34;9.30;99.90
24207;DHT22;12351;52.284;9.160;2022-11-15T00:21:22;9.40;99.90
24207;DHT22;12351;52.284;9.160;2022-11-15T00:24:13;9.40;99.90
24207;DHT22;12351;52.284;9.160;2022-11-15T00:27:02;9.40;99.90
24207;DHT22;12351;52.284;9.160;2022-11-15T00:29:51;9.50;99.90
24207;DHT22;12351;52.284;9.160;2022-11-15T00:32:40;9.50;99.90
24207;DHT22;12351;52.284;9.160;2022-11-15T00:35:31;9.50;99.90
24207;DHT22;12351;52.284;9.160;2022-11-15T00:38:23;9.50;99.90
24207;DHT22;12351;52.284;9.160;2022-11-15T00:41:14;9.60;99.90
24207;DHT22;12351;52.284;9.160;2022-11-15T00:44:06;9.60;99.90
24207;DHT22;12351;52.284;9.160;2022-11-15T00:46:56;9.70;99.90
24207;DHT22;12351;52.284;9.160;2022-11-15T00:49:45;9.70;99.90
24207;DHT22;12351;52.284;9.160;2022-11-15T00:52:34;9.70;99.90
24207;DHT22;12351;52.284;9.160;2022-11-15T00:55:24;9.70;99.90
24207;DHT22;12351;52.284;9.160;2022-11-15T00:58:14;9.70;99.90
24207;DHT22;12351;52.284;9.160;2022-11-15T01:01:07;9.70;99.90
24207;DHT22;12351;52.284;9.160;2022-11-15T01:03:56;9.70;99.90
24207;DHT22;12351;52.284;9.160;2022-11-15T01:06:47;9.80;99.90
24207;DHT22;12351;52.284;9.160;2022-11-15T01:09:36;9.80;99.90
24207;DHT22;12351;52.284;9.160;2022-11-15T01:12:24;9.80;99.90
24207;DHT22;12351;52.284;9.160;2022-11-15T01:15:17;9.90;99.90
24207;DHT22;12351;52.284;9.160;2022-11-15T01:18:09;9.90;99.90
24207;DHT22;12351;52.284;9.160;2022-11-15T01:20:57;10.00;99.90
24207;DHT22;12351;52.284;9.160;2022-11-15T01:26:29;10.00;99.90
24207;DHT22;12351;52.284;9.160;2022-11-15T01:29:19;10.10;99.90
24207;DHT22;12351;52.284;9.160;2022-11-15T01:32:08;10.10;99.90
24207;DHT22;12351;52.284;9.160;2022-11-15T01:35:00;10.10;99.90
24207;DHT22;12351;52.284;9.160;2022-11-15T01:37:49;10.20;99.90
24207;DHT22;12351;52.284;9.160;2022-11-15T01:40:38;10.20;99.90
24207;DHT22;12351;52.284;9.160;2022-11-15T01:43:31;10.40;99.90
24207;DHT22;12351;52.284;9.160;2022-11-15T01:49:03;10.40;99.90
24207;DHT22;12351;52.284;9.160;2022-11-15T01:51:57;10.40;99.90
24207;DHT22;12351;52.284;9.160;2022-11-15T01:54:48;10.40;99.90
24207;DHT22;12351;52.284;9.160;2022-11-15T01:57:39;10.40;99.90
24207;DHT22;12351;52.284;9.160;2022-11-15T02:00:30;10.50;99.90
24207;DHT22;12351;52.284;9.160;2022-11-15T02:03:21;10.50;99.90
24207;DHT22;12351;52.284;9.160;2022-11-15T02:06:10;10.50;99.90
24207;DHT22;12351;52.284;9.160;2022-11-15T02:09:00;10.60;99.90
24207;DHT22;12351;52.284;9.160;2022-11-15T02:11:51;10.60;99.90
24207;DHT22;12351;52.284;9.160;2022-11-15T02:14:44;10.60;99.90
24207;DHT22;12351;52.284;9.160;2022-11-15T02:20:30;10.70;99.90
24207;DHT22;12351;52.284;9.160;2022-11-15T02:26:15;10.80;99.90
24207;DHT22;12351;52.284;9.160;2022-11-15T02:29:01;10.80;99.90
24207;DHT22;12351;52.284;9.160;2022-11-15T02:43:14;10.80;99.90
24207;DHT22;12351;52.284;9.160;2022-11-15T02:46:06;10.80;99.90
24207;DHT22;12351;52.284;9.160;2022-11-15T02:48:55;10.80;99.90
24207;DHT22;12351;52.284;9.160;2022-11-15T02:51:47;10.80;99.90
24207;DHT22;12351;52.284;9.160;2022-11-15T02:54:36;10.80;99.90
24207;DHT22;12351;52.284;9.160;2022-11-15T03:00:19;10.80;99.90
24207;DHT22;12351;52.284;9.160;2022-11-15T03:08:54;10.90;99.90
24207;DHT22;12351;52.284;9.160;2022-11-15T03:11:41;10.90;99.90
24207;DHT22;12351;52.284;9.160;2022-11-15T03:14:33;10.90;99.90
24207;DHT22;12351;52.284;9.160;2022-11-15T03:17:23;11.00;99.90
24207;DHT22;12351;52.284;9.160;2022-11-15T03:20:13;11.00;99.90
24207;DHT22;12351;52.284;9.160;2022-11-15T03:23:05;11.00;99.90
24207;DHT22;12351;52.284;9.160;2022-11-15T03:25:58;11.10;99.90
24207;DHT22;12351;52.284;9.160;2022-11-15T03:28:47;11.00;99.90
24207;DHT22;12351;52.284;9.160;2022-11-15T03:31:35;11.00;99.90
24207;DHT22;12351;52.284;9.160;2022-11-15T03:34:27;11.10;99.90
24207;DHT22;12351;52.284;9.160;2022-11-15T03:37:15;11.10;99.90
24207;DHT22;12351;52.284;9.160;2022-11-15T03:40:08;11.20;99.90
24207;DHT22;12351;52.284;9.160;2022-11-15T03:45:47;11.20;99.90
24207;DHT22;12351;52.284;9.160;2022-11-15T03:48:38;11.20;99.90
24207;DHT22;12351;52.284;9.160;2022-11-15T03:51:28;11.20;99.90
24207;DHT22;12351;52.284;9.160;2022-11-15T03:54:19;11.20;99.90
24207;DHT22;12351;52.284;9.160;2022-11-15T03:57:08;11.20;99.90
24207;DHT22;12351;52.284;9.160;2022-11-15T04:00:02;11.30;99.90
24207;DHT22;12351;52.284;9.160;2022-11-15T04:02:50;11.30;99.90
24207;DHT22;12351;52.284;9.160;2022-11-15T04:05:42;11.30;99.90
24207;DHT22;12351;52.284;9.160;2022-11-15T04:08:33;11.30;99.90
24207;DHT22;12351;52.284;9.160;2022-11-15T04:11:26;11.30;99.90
24207;DHT22;12351;52.284;9.160;2022-11-15T04:14:17;11.30;99.90
24207;DHT22;12351;52.284;9.160;2022-11-15T04:17:08;11.30;99.90
24207;DHT22;12351;52.284;9.160;2022-11-15T04:22:51;11.30;99.90
24207;DHT22;12351;52.284;9.160;2022-11-15T04:25:43;11.30;99.90
24207;DHT22;12351;52.284;9.160;2022-11-15T04:28:33;11.30;99.90
24207;DHT22;12351;52.284;9.160;2022-11-15T04:31:23;11.30;99.90
24207;DHT22;12351;52.284;9.160;2022-11-15T04:34:11;11.30;99.90
24207;DHT22;12351;52.284;9.160;2022-11-15T04:37:01;11.30;99.90
24207;DHT22;12351;52.284;9.160;2022-11-15T04:39:52;11.30;99.90
24207;DHT22;12351;52.284;9.160;2022-11-15T04:42:43;11.30;99.90
24207;DHT22;12351;52.284;9.160;2022-11-15T04:45:33;11.30;99.90
24207;DHT22;12351;52.284;9.160;2022-11-15T04:48:21;11.20;99.90
24207;DHT22;12351;52.284;9.160;2022-11-15T04:51:12;11.20;99.90
24207;DHT22;12351;52.284;9.160;2022-11-15T04:54:00;11.20;99.90
24207;DHT22;12351;52.284;9.160;2022-11-15T04:56:50;11.20;99.90
24207;DHT22;12351;52.284;9.160;2022-11-15T04:59:41;11.10;99.90
24207;DHT22;12351;52.284;9.160;2022-11-15T05:02:28;11.10;99.90
24207;DHT22;12351;52.284;9.160;2022-11-15T05:05:18;11.10;99.90
24207;DHT22;12351;52.284;9.160;2022-11-15T05:08:07;11.10;99.90
24207;DHT22;12351;52.284;9.160;2022-11-15T05:10:58;11.00;99.90
24207;DHT22;12351;52.284;9.160;2022-11-15T05:13:47;11.00;99.90
24207;DHT22;12351;52.284;9.160;2022-11-15T05:16:38;10.90;99.90
24207;DHT22;12351;52.284;9.160;2022-11-15T05:19:30;10.90;99.90
24207;DHT22;12351;52.284;9.160;2022-11-15T05:22:20;11.00;99.90
24207;DHT22;12351;52.284;9.160;2022-11-15T05:25:08;11.00;99.90
24207;DHT22;12351;52.284;9.160;2022-11-15T05:27:59;11.00;99.90
24207;DHT22;12351;52.284;9.160;2022-11-15T05:30:50;11.00;99.90
24207;DHT22;12351;52.284;9.160;2022-11-15T05:33:42;11.00;99.90
24207;DHT22;12351;52.284;9.160;2022-11-15T05:39:24;11.00;99.90
24207;DHT22;12351;52.284;9.160;2022-11-15T05:42:14;10.90;99.90
24207;DHT22;12351;52.284;9.160;2022-11-15T05:45:07;11.00;99.90
24207;DHT22;12351;52.284;9.160;2022-11-15T05:47:59;11.00;99.90
24207;DHT22;12351;52.284;9.160;2022-11-15T05:50:49;11.00;99.90
24207;DHT22;12351;52.284;9.160;2022-11-15T05:53:40;11.00;99.90
24207;DHT22;12351;52.284;9.160;2022-11-15T05:56:30;11.10;99.90
24207;DHT22;12351;52.284;9.160;2022-11-15T05:59:19;11.10;99.90
24207;DHT22;12351;52.284;9.160;2022-11-15T06:02:12;11.10;99.90
24207;DHT22;12351;52.284;9.160;2022-11-15T06:05:01;11.10;99.90
24207;DHT22;12351;52.284;9.160;2022-11-15T06:07:49;11.10;99.90
24207;DHT22;12351;52.284;9.160;2022-11-15T06:10:39;11.20;99.90
24207;DHT22;12351;52.284;9.160;2022-11-15T06:13:30;11.20;99.90
24207;DHT22;12351;52.284;9.160;2022-11-15T06:16:19;11.20;99.90
24207;DHT22;12351;52.284;9.160;2022-11-15T06:19:10;11.30;99.90
24207;DHT22;12351;52.284;9.160;2022-11-15T06:22:00;11.30;99.90
24207;DHT22;12351;52.284;9.160;2022-11-15T06:24:51;11.30;99.90
24207;DHT22;12351;52.284;9.160;2022-11-15T06:27:41;11.30;99.90
24207;DHT22;12351;52.284;9.160;2022-11-15T06:30:30;11.40;99.90
24207;DHT22;12351;52.284;9.160;2022-11-15T06:33:19;11.40;99.90
24207;DHT22;12351;52.284;9.160;2022-11-15T06:36:10;11.40;99.90
24207;DHT22;12351;52.284;9.160;2022-11-15T06:39:00;11.40;99.90
24207;DHT22;12351;52.284;9.160;2022-11-15T06:41:51;11.50;99.90
24207;DHT22;12351;52.284;9.160;2022-11-15T06:44:43;11.50;99.90
24207;DHT22;12351;52.284;9.160;2022-11-15T06:47:31;11.50;99.90
24207;DHT22;12351;52.284;9.160;2022-11-15T06:50:22;11.50;99.90
24207;DHT22;12351;52.284;9.160;2022-11-15T06:53:14;11.50;99.90
24207;DHT22;12351;52.284;9.160;2022-11-15T06:56:05;11.40;99.90
24207;DHT22;12351;52.284;9.160;2022-11-15T06:58:53;11.40;99.90
24207;DHT22;12351;52.284;9.160;2022-11-15T07:01:45;11.40;99.90
24207;DHT22;12351;52.284;9.160;2022-11-15T07:04:35;11.40;99.90
24207;DHT22;12351;52.284;9.160;2022-11-15T07:07:27;11.40;99.90
24207;DHT22;12351;52.284;9.160;2022-11-15T07:10:17;11.40;99.90
24207;DHT22;12351;52.284;9.160;2022-11-15T07:13:04;11.30;99.90
24207;DHT22;12351;52.284;9.160;2022-11-15T07:15:56;11.40;99.90
24207;DHT22;12351;52.284;9.160;2022-11-15T07:18:46;11.30;99.90
24207;DHT22;12351;52.284;9.160;2022-11-15T07:21:38;11.30;99.90
24207;DHT22;12351;52.284;9.160;2022-11-15T07:24:25;11.30;99.90
24207;DHT22;12351;52.284;9.160;2022-11-15T07:27:15;11.30;99.90
24207;DHT22;12351;52.284;9.160;2022-11-15T07:30:04;11.30;99.90
24207;DHT22;12351;52.284;9.160;2022-11-15T07:32:57;11.30;99.90
24207;DHT22;12351;52.284;9.160;2022-11-15T07:35:45;11.30;99.90
24207;DHT22;12351;52.284;9.160;2022-11-15T07:38:37;11.30;99.90
24207;DHT22;12351;52.284;9.160;2022-11-15T07:41:28;11.40;99.90
24207;DHT22;12351;52.284;9.160;2022-11-15T07:44:19;11.40;99.90
24207;DHT22;12351;52.284;9.160;2022-11-15T07:47:09;11.30;99.90
24207;DHT22;12351;52.284;9.160;2022-11-15T07:50:01;11.30;99.90
24207;DHT22;12351;52.284;9.160;2022-11-15T07:55:40;11.30;99.90
24207;DHT22;12351;52.284;9.160;2022-11-15T07:58:29;11.30;99.90
24207;DHT22;12351;52.284;9.160;2022-11-15T08:01:20;11.30;99.90
24207;DHT22;12351;52.284;9.160;2022-11-15T08:04:10;11.30;99.90
24207;DHT22;12351;52.284;9.160;2022-11-15T08:07:02;11.30;99.90
24207;DHT22;12351;52.284;9.160;2022-11-15T08:09:50;11.30;99.90
24207;DHT22;12351;52.284;9.160;2022-11-15T08:12:42;11.40;99.90
24207;DHT22;12351;52.284;9.160;2022-11-15T08:15:32;11.30;99.90
24207;DHT22;12351;52.284;9.160;2022-11-15T08:18:21;11.40;99.90
24207;DHT22;12351;52.284;9.160;2022-11-15T08:21:13;11.40;99.90
24207;DHT22;12351;52.284;9.160;2022-11-15T08:24:01;11.40;99.90
24207;DHT22;12351;52.284;9.160;2022-11-15T08:26:49;11.50;99.90
24207;DHT22;12351;52.284;9.160;2022-11-15T08:29:40;11.50;99.90
24207;DHT22;12351;52.284;9.160;2022-11-15T08:32:28;11.50;99.90
24207;DHT22;12351;52.284;9.160;2022-11-15T08:35:22;11.50;99.90
24207;DHT22;12351;52.284;9.160;2022-11-15T08:38:14;11.50;99.90
24207;DHT22;12351;52.284;9.160;2022-11-15T08:41:04;11.60;99.90
24207;DHT22;12351;52.284;9.160;2022-11-15T08:43:52;11.60;99.90
24207;DHT22;12351;52.284;9.160;2022-11-15T08:46:41;11.60;99.90
24207;DHT22;12351;52.284;9.160;2022-11-15T08:49:29;11.60;99.90
24207;DHT22;12351;52.284;9.160;2022-11-15T08:52:21;11.70;99.90
24207;DHT22;12351;52.284;9.160;2022-11-15T08:55:11;11.70;99.90
24207;DHT22;12351;52.284;9.160;2022-11-15T08:58:04;11.70;99.90
24207;DHT22;12351;52.284;9.160;2022-11-15T09:00:54;11.80;99.90
24207;DHT22;12351;52.284;9.160;2022-11-15T09:03:45;11.90;99.90
24207;DHT22;12351;52.284;9.160;2022-11-15T09:06:36;11.90;99.90
24207;DHT22;12351;52.284;9.160;2022-11-15T09:09:26;11.90;99.90
24207;DHT22;12351;52.284;9.160;2022-11-15T09:12:15;12.00;99.90
24207;DHT22;12351;52.284;9.160;2022-11-15T09:15:01;12.00;99.90
24207;DHT22;12351;52.284;9.160;2022-11-15T09:17:52;12.00;99.90
24207;DHT22;12351;52.284;9.160;2022-11-15T09:20:42;12.00;99.90
24207;DHT22;12351;52.284;9.160;2022-11-15T09:23:32;12.00;99.90
24207;DHT22;12351;52.284;9.160;2022-11-15T09:26:22;12.10;99.90
24207;DHT22;12351;52.284;9.160;2022-11-15T09:29:13;12.10;99.90
24207;DHT22;12351;52.284;9.160;2022-11-15T09:32:02;12.10;99.90
24207;DHT22;12351;52.284;9.160;2022-11-15T09:34:53;12.10;99.90
24207;DHT22;12351;52.284;9.160;2022-11-15T09:37:40;12.10;99.90
24207;DHT22;12351;52.284;9.160;2022-11-15T09:40:30;12.10;99.90
24207;DHT22;12351;52.284;9.160;2022-11-15T09:49:06;12.20;99.90
24207;DHT22;12351;52.284;9.160;2022-11-15T09:51:55;12.20;99.90
24207;DHT22;12351;52.284;9.160;2022-11-15T09:54:46;12.30;99.90
24207;DHT22;12351;52.284;9.160;2022-11-15T09:57:40;12.40;99.90
24207;DHT22;12351;52.284;9.160;2022-11-15T10:00:29;12.40;99.90
24207;DHT22;12351;52.284;9.160;2022-11-15T10:06:11;12.50;99.90
24207;DHT22;12351;52.284;9.160;2022-11-15T10:09:01;12.50;99.90
24207;DHT22;12351;52.284;9.160;2022-11-15T10:11:49;12.50;99.90
24207;DHT22;12351;52.284;9.160;2022-11-15T10:14:39;12.60;99.90
24207;DHT22;12351;52.284;9.160;2022-11-15T10:20:22;12.70;99.90
24207;DHT22;12351;52.284;9.160;2022-11-15T10:23:11;12.70;99.90
24207;DHT22;12351;52.284;9.160;2022-11-15T10:26:03;12.80;99.90
24207;DHT22;12351;52.284;9.160;2022-11-15T10:28:52;12.90;99.90
24207;DHT22;12351;52.284;9.160;2022-11-15T10:31:43;13.00;99.90
24207;DHT22;12351;52.284;9.160;2022-11-15T10:34:34;13.00;99.90
24207;DHT22;12351;52.284;9.160;2022-11-15T10:40:16;13.00;99.90
24207;DHT22;12351;52.284;9.160;2022-11-15T10:43:10;13.10;99.90
24207;DHT22;12351;52.284;9.160;2022-11-15T10:45:55;13.10;99.90
24207;DHT22;12351;52.284;9.160;2022-11-15T10:48:47;13.10;99.90
24207;DHT22;12351;52.284;9.160;2022-11-15T10:51:35;13.10;99.90
24207;DHT22;12351;52.284;9.160;2022-11-15T10:54:28;13.10;99.90
24207;DHT22;12351;52.284;9.160;2022-11-15T10:57:22;13.20;99.90
24207;DHT22;12351;52.284;9.160;2022-11-15T11:03:04;13.30;99.90
24207;DHT22;12351;52.284;9.160;2022-11-15T11:14:29;13.30;99.90
24207;DHT22;12351;52.284;9.160;2022-11-15T11:34:33;13.50;99.90
24207;DHT22;12351;52.284;9.160;2022-11-15T11:37:24;13.60;99.90
24207;DHT22;12351;52.284;9.160;2022-11-15T11:43:06;13.60;99.90
24207;DHT22;12351;52.284;9.160;2022-11-15T11:48:49;13.80;99.90
24207;DHT22;12351;52.284;9.160;2022-11-15T11:54:31;13.80;99.90
24207;DHT22;12351;52.284;9.160;2022-11-15T11:57:25;13.90;99.90
24207;DHT22;12351;52.284;9.160;2022-11-15T12:05:55;14.00;99.90
24207;DHT22;12351;52.284;9.160;2022-11-15T12:14:28;14.10;99.90
24207;DHT22;12351;52.284;9.160;2022-11-15T12:17:17;14.20;99.90
24207;DHT22;12351;52.284;9.160;2022-11-15T12:25:49;14.10;99.90
24207;DHT22;12351;52.284;9.160;2022-11-15T12:28:40;14.20;99.90
24207;DHT22;12351;52.284;9.160;2022-11-15T12:31:35;14.20;99.90
24207;DHT22;12351;52.284;9.160;2022-11-15T12:37:32;14.10;99.90
24207;DHT22;12351;52.284;9.160;2022-11-15T12:45:42;14.30;99.90
24207;DHT22;12351;52.284;9.160;2022-11-15T13:14:03;14.30;99.90
24207;DHT22;12351;52.284;9.160;2022-11-15T13:19:43;14.20;99.90
24207;DHT22;12351;52.284;9.160;2022-11-15T13:28:21;14.20;99.90
24207;DHT22;12351;52.284;9.160;2022-11-15T13:36:50;14.00;99.90
24207;DHT22;12351;52.284;9.160;2022-11-15T13:39:42;13.90;99.90
24207;DHT22;12351;52.284;9.160;2022-11-15T13:42:38;13.90;99.90
24207;DHT22;12351;52.284;9.160;2022-11-15T13:45:29;13.80;99.90
24207;DHT22;12351;52.284;9.160;2022-11-15T13:48:20;13.80;99.90
24207;DHT22;12351;52.284;9.160;2022-11-15T13:56:53;13.60;99.90
24207;DHT22;12351;52.284;9.160;2022-11-15T14:02:34;13.60;99.90
24207;DHT22;12351;52.284;9.160;2022-11-15T14:05:24;13.60;99.90
24207;DHT22;12351;52.284;9.160;2022-11-15T14:16:41;13.60;99.90
24207;DHT22;12351;52.284;9.160;2022-11-15T14:30:45;13.60;99.90
24207;DHT22;12351;52.284;9.160;2022-11-15T14:33:38;13.60;99.90
24207;DHT22;12351;52.284;9.160;2022-11-15T14:36:28;13.60;99.90
24207;DHT22;12351;52.284;9.160;2022-11-15T14:39:21;13.60;99.90
24207;DHT22;12351;52.284;9.160;2022-11-15T14:42:10;13.50;99.90
24207;DHT22;12351;52.284;9.160;2022-11-15T14:44:59;13.50;99.90
24207;DHT22;12351;52.284;9.160;2022-11-15T14:47:50;13.50;99.90
24207;DHT22;12351;52.284;9.160;2022-11-15T14:50:40;13.50;99.90
24207;DHT22;12351;52.284;9.160;2022-11-15T14:53:30;13.50;99.90
24207;DHT22;12351;52.284;9.160;2022-11-15T14:56:19;13.50;99.90
24207;DHT22;12351;52.284;9.160;2022-11-15T14:59:07;13.40;99.90
24207;DHT22;12351;52.284;9.160;2022-11-15T15:01:58;13.40;99.90
24207;DHT22;12351;52.284;9.160;2022-11-15T15:04:47;13.40;99.90
24207;DHT22;12351;52.284;9.160;2022-11-15T15:07:39;13.40;99.90
24207;DHT22;12351;52.284;9.160;2022-11-15T15:10:28;13.30;99.90
24207;DHT22;12351;52.284;9.160;2022-11-15T15:13:18;13.30;99.90
24207;DHT22;12351;52.284;9.160;2022-11-15T15:16:08;13.30;99.90
24207;DHT22;12351;52.284;9.160;2022-11-15T15:18:56;13.20;99.90
24207;DHT22;12351;52.284;9.160;2022-11-15T15:21:48;13.20;99.90
24207;DHT22;12351;52.284;9.160;2022-11-15T15:24:36;13.20;99.90
24207;DHT22;12351;52.284;9.160;2022-11-15T15:27:26;13.20;99.90
24207;DHT22;12351;52.284;9.160;2022-11-15T15:30:15;13.20;99.90
24207;DHT22;12351;52.284;9.160;2022-11-15T15:33:04;13.20;99.90
24207;DHT22;12351;52.284;9.160;2022-11-15T15:35:54;13.20;99.90
24207;DHT22;12351;52.284;9.160;2022-11-15T15:38:44;13.20;99.90
24207;DHT22;12351;52.284;9.160;2022-11-15T15:41:35;13.20;99.90
24207;DHT22;12351;52.284;9.160;2022-11-15T15:44:24;13.10;99.90
24207;DHT22;12351;52.284;9.160;2022-11-15T15:47:17;13.20;99.90
24207;DHT22;12351;52.284;9.160;2022-11-15T15:50:12;13.10;99.90
24207;DHT22;12351;52.284;9.160;2022-11-15T15:52:55;13.10;99.90
24207;DHT22;12351;52.284;9.160;2022-11-15T15:55:43;13.10;99.90
24207;DHT22;12351;52.284;9.160;2022-11-15T15:58:32;13.00;99.90
24207;DHT22;12351;52.284;9.160;2022-11-15T16:01:21;13.00;99.90
24207;DHT22;12351;52.284;9.160;2022-11-15T16:04:10;13.00;99.90
24207;DHT22;12351;52.284;9.160;2022-11-15T16:07:00;12.90;99.90
24207;DHT22;12351;52.284;9.160;2022-11-15T16:09:50;13.00;99.90
24207;DHT22;12351;52.284;9.160;2022-11-15T16:12:42;12.80;99.90
24207;DHT22;12351;52.284;9.160;2022-11-15T16:15:33;12.80;99.90
24207;DHT22;12351;52.284;9.160;2022-11-15T16:18:24;12.80;99.90
24207;DHT22;12351;52.284;9.160;2022-11-15T16:21:13;12.80;99.90
24207;DHT22;12351;52.284;9.160;2022-11-15T16:24:03;12.70;99.90
24207;DHT22;12351;52.284;9.160;2022-11-15T16:26:52;12.70;99.90
24207;DHT22;12351;52.284;9.160;2022-11-15T16:29:43;12.70;99.90
24207;DHT22;12351;52.284;9.160;2022-11-15T16:32:31;12.70;99.90
24207;DHT22;12351;52.284;9.160;2022-11-15T16:35:20;12.60;99.90
24207;DHT22;12351;52.284;9.160;2022-11-15T16:38:13;12.70;99.90
24207;DHT22;12351;52.284;9.160;2022-11-15T16:41:01;12.70;99.90
24207;DHT22;12351;52.284;9.160;2022-11-15T16:43:52;12.60;99.90
24207;DHT22;12351;52.284;9.160;2022-11-15T16:46:43;12.60;99.90
24207;DHT22;12351;52.284;9.160;2022-11-15T16:49:32;12.60;99.90
24207;DHT22;12351;52.284;9.160;2022-11-15T16:52:23;12.60;99.90
24207;DHT22;12351;52.284;9.160;2022-11-15T16:55:12;12.60;99.90
24207;DHT22;12351;52.284;9.160;2022-11-15T16:58:01;12.50;99.90
24207;DHT22;12351;52.284;9.160;2022-11-15T17:00:54;12.50;99.90
24207;DHT22;12351;52.284;9.160;2022-11-15T17:06:37;12.50;99.90
24207;DHT22;12351;52.284;9.160;2022-11-15T17:09:27;12.40;99.90
24207;DHT22;12351;52.284;9.160;2022-11-15T17:12:18;12.40;99.90
24207;DHT22;12351;52.284;9.160;2022-11-15T17:15:10;12.40;99.90
24207;DHT22;12351;52.284;9.160;2022-11-15T17:18:02;12.30;99.90
24207;DHT22;12351;52.284;9.160;2022-11-15T17:20:53;12.30;99.90
24207;DHT22;12351;52.284;9.160;2022-11-15T17:23:44;12.30;99.90
24207;DHT22;12351;52.284;9.160;2022-11-15T17:26:38;12.30;99.90
24207;DHT22;12351;52.284;9.160;2022-11-15T17:29:27;12.30;99.90
24207;DHT22;12351;52.284;9.160;2022-11-15T17:32:16;12.30;99.90
24207;DHT22;12351;52.284;9.160;2022-11-15T17:35:07;12.20;99.90
24207;DHT22;12351;52.284;9.160;2022-11-15T17:37:57;12.30;99.90
24207;DHT22;12351;52.284;9.160;2022-11-15T17:40:46;12.30;99.90
24207;DHT22;12351;52.284;9.160;2022-11-15T17:43:37;12.30;99.90
24207;DHT22;12351;52.284;9.160;2022-11-15T17:46:29;12.30;99.90
24207;DHT22;12351;52.284;9.160;2022-11-15T17:49:17;12.30;99.90
24207;DHT22;12351;52.284;9.160;2022-11-15T17:52:09;12.30;99.90
24207;DHT22;12351;52.284;9.160;2022-11-15T17:54:58;12.30;99.90
24207;DHT22;12351;52.284;9.160;2022-11-15T17:57:50;12.20;99.90
24207;DHT22;12351;52.284;9.160;2022-11-15T18:00:41;12.20;99.90
24207;DHT22;12351;52.284;9.160;2022-11-15T18:03:33;12.20;99.90
24207;DHT22;12351;52.284;9.160;2022-11-15T18:06:25;12.20;99.90
24207;DHT22;12351;52.284;9.160;2022-11-15T18:09:15;12.30;99.90
24207;DHT22;12351;52.284;9.160;2022-11-15T18:12:06;12.30;99.90
24207;DHT22;12351;52.284;9.160;2022-11-15T18:14:56;12.30;99.90
24207;DHT22;12351;52.284;9.160;2022-11-15T18:17:48;12.20;99.90
24207;DHT22;12351;52.284;9.160;2022-11-15T18:20:39;12.30;99.90
24207;DHT22;12351;52.284;9.160;2022-11-15T18:23:25;12.30;99.90
24207;DHT22;12351;52.284;9.160;2022-11-15T18:26:16;12.30;99.90
24207;DHT22;12351;52.284;9.160;2022-11-15T18:29:06;12.40;99.90
24207;DHT22;12351;52.284;9.160;2022-11-15T18:31:54;12.40;99.90
24207;DHT22;12351;52.284;9.160;2022-11-15T18:34:44;12.40;99.90
24207;DHT22;12351;52.284;9.160;2022-11-15T18:37:37;12.40;99.90
24207;DHT22;12351;52.284;9.160;2022-11-15T18:40:27;12.40;99.90
24207;DHT22;12351;52.284;9.160;2022-11-15T18:43:16;12.40;99.90
24207;DHT22;12351;52.284;9.160;2022-11-15T18:46:09;12.40;99.90
24207;DHT22;12351;52.284;9.160;2022-11-15T18:49:01;12.40;99.90
24207;DHT22;12351;52.284;9.160;2022-11-15T18:51:53;12.50;99.90
24207;DHT22;12351;52.284;9.160;2022-11-15T18:54:41;12.50;99.90
24207;DHT22;12351;52.284;9.160;2022-11-15T18:57:29;12.50;99.90
24207;DHT22;12351;52.284;9.160;2022-11-15T19:00:21;12.40;99.90
24207;DHT22;12351;52.284;9.160;2022-11-15T19:03:17;12.50;99.90
24207;DHT22;12351;52.284;9.160;2022-11-15T19:08:57;12.50;99.90
24207;DHT22;12351;52.284;9.160;2022-11-15T19:11:47;12.50;99.90
24207;DHT22;12351;52.284;9.160;2022-11-15T19:14:36;12.50;99.90
24207;DHT22;12351;52.284;9.160;2022-11-15T19:17:25;12.50;99.90
24207;DHT22;12351;52.284;9.160;2022-11-15T19:20:18;12.50;99.90
24207;DHT22;12351;52.284;9.160;2022-11-15T19:23:07;12.60;99.90
24207;DHT22;12351;52.284;9.160;2022-11-15T19:26:00;12.50;99.90
24207;DHT22;12351;52.284;9.160;2022-11-15T19:28:53;12.50;99.90
24207;DHT22;12351;52.284;9.160;2022-11-15T19:31:42;12.60;99.90
24207;DHT22;12351;52.284;9.160;2022-11-15T19:34:29;12.60;99.90
24207;DHT22;12351;52.284;9.160;2022-11-15T19:37:21;12.60;99.90
24207;DHT22;12351;52.284;9.160;2022-11-15T19:40:12;12.60;99.90
24207;DHT22;12351;52.284;9.160;2022-11-15T19:43:04;12.60;99.90
24207;DHT22;12351;52.284;9.160;2022-11-15T19:45:54;12.60;99.90
24207;DHT22;12351;52.284;9.160;2022-11-15T19:48:43;12.60;99.90
24207;DHT22;12351;52.284;9.160;2022-11-15T19:51:38;12.60;99.90
24207;DHT22;12351;52.284;9.160;2022-11-15T19:54:25;12.60;99.90
24207;DHT22;12351;52.284;9.160;2022-11-15T19:57:18;12.70;99.90
24207;DHT22;12351;52.284;9.160;2022-11-15T20:00:06;12.70;99.90
24207;DHT22;12351;52.284;9.160;2022-11-15T20:02:59;12.70;99.90
24207;DHT22;12351;52.284;9.160;2022-11-15T20:05:45;12.70;99.90
24207;DHT22;12351;52.284;9.160;2022-11-15T20:08:37;12.70;99.90
24207;DHT22;12351;52.284;9.160;2022-11-15T20:11:26;12.70;99.90
24207;DHT22;12351;52.284;9.160;2022-11-15T20:14:18;12.60;99.90
24207;DHT22;12351;52.284;9.160;2022-11-15T20:17:10;12.60;99.90
24207;DHT22;12351;52.284;9.160;2022-11-15T20:20:02;12.60;99.90
24207;DHT22;12351;52.284;9.160;2022-11-15T20:22:50;12.60;99.90
24207;DHT22;12351;52.284;9.160;2022-11-15T20:25:42;12.60;99.90
24207;DHT22;12351;52.284;9.160;2022-11-15T20:28:32;12.60;99.90
24207;DHT22;12351;52.284;9.160;2022-11-15T20:31:21;12.60;99.90
24207;DHT22;12351;52.284;9.160;2022-11-15T20:34:11;12.60;99.90
24207;DHT22;12351;52.284;9.160;2022-11-15T20:37:00;12.60;99.90
24207;DHT22;12351;52.284;9.160;2022-11-15T20:39:51;12.60;99.90
24207;DHT22;12351;52.284;9.160;2022-11-15T20:42:39;12.60;99.90
24207;DHT22;12351;52.284;9.160;2022-11-15T20:45:30;12.50;99.90
24207;DHT22;12351;52.284;9.160;2022-11-15T20:48:21;12.50;99.90
24207;DHT22;12351;52.284;9.160;2022-11-15T20:51:14;12.50;99.90
24207;DHT22;12351;52.284;9.160;2022-11-15T20:54:06;12.50;99.90
24207;DHT22;12351;52.284;9.160;2022-11-15T20:56:55;12.50;99.90
24207;DHT22;12351;52.284;9.160;2022-11-15T20:59:45;12.50;99.90
24207;DHT22;12351;52.284;9.160;2022-11-15T21:02:36;12.50;99.90
24207;DHT22;12351;52.284;9.160;2022-11-15T21:05:28;12.50;99.90
24207;DHT22;12351;52.284;9.160;2022-11-15T21:08:21;12.50;99.90
24207;DHT22;12351;52.284;9.160;2022-11-15T21:11:10;12.50;99.90